Time;durP1;ratioP1;P1;durP2;ratioP2;P2;SDS_P1;SDS_P2;PMS_P1;PMS_P2;Temp;Humidity;BMP_temperature;BMP_pressure;BME280_temperature;BME280_humidity;BME280_pressure;Samples;Min_cycle;Max_cycle;Signal;HPM_P1;HPM_P2
2022/08/19 00:02:02;;;;;;;68.28;35.40;;;;;;;-144.47;90.83;53259.31;5051345;28;20051;-66
2022/08/19 00:04:32;;;;;;;68.47;34.25;;;;;;;-144.47;91.25;53293.06;5025840;28;20020;-64
2022/08/19 00:06:59;;;;;;;65.03;36.22;;;;;;;-144.47;91.32;53283.13;5038775;28;20024;-67
2022/08/19 00:09:25;;;;;;;65.97;36.83;;;;;;;-144.47;91.42;53324.84;5052940;28;20032;-66
2022/08/19 00:11:52;;;;;;;66.45;36.55;;;;;;;-144.47;91.07;53295.06;5064948;28;20048;-66
2022/08/19 00:14:20;;;;;;;66.15;34.72;;;;;;;-144.47;90.43;53308.97;5046427;28;20024;-65
2022/08/19 00:16:47;;;;;;;74.63;37.07;;;;;;;-144.47;90.90;53352.66;5032807;28;20182;-66
2022/08/19 00:19:13;;;;;;;73.43;35.78;;;;;;;-144.47;90.95;53308.97;5029568;28;20029;-67
2022/08/19 00:21:39;;;;;;;67.28;35.55;;;;;;;-144.47;90.69;53299.03;5068630;28;20402;-67
2022/08/19 00:24:07;;;;;;;71.25;36.13;;;;;;;-144.47;90.92;53322.88;5057694;28;20306;-66
2022/08/19 00:26:33;;;;;;;66.30;36.58;;;;;;;-144.47;91.18;53336.78;5057429;28;20024;-66
2022/08/19 00:29:00;;;;;;;62.75;34.92;;;;;;;-144.47;90.83;53291.09;5049444;28;20029;-65
2022/08/19 00:31:27;;;;;;;72.20;36.67;;;;;;;-144.47;91.27;53299.03;5049726;28;20025;-64
2022/08/19 00:33:53;;;;;;;81.25;36.13;;;;;;;-144.47;90.65;53334.78;5058342;28;20081;-66
2022/08/19 00:36:18;;;;;;;68.85;35.78;;;;;;;-144.47;90.97;53310.94;5070527;28;20036;-65
2022/08/19 00:38:44;;;;;;;70.20;38.38;;;;;;;-144.47;90.92;53352.66;5077045;22;20052;-68
2022/08/19 00:41:13;;;;;;;77.05;39.00;;;;;;;-144.47;91.45;53289.09;5053220;28;20059;-67
2022/08/19 00:43:39;;;;;;;74.22;39.03;;;;;;;-144.47;91.27;53328.81;5084634;28;20508;-69
2022/08/19 00:46:04;;;;;;;84.50;39.45;;;;;;;-144.47;91.57;53330.81;5064117;28;20047;-67
2022/08/19 00:48:32;;;;;;;80.25;41.58;;;;;;;-144.47;91.52;53330.81;5055269;28;20028;-68
2022/08/19 00:50:57;;;;;;;83.72;38.65;;;;;;;-144.47;91.86;53283.13;5052209;28;20013;-70
2022/08/19 00:53:27;;;;;;;76.68;38.05;;;;;;;-144.47;92.06;53320.88;5033110;28;20363;-71
2022/08/19 00:55:54;;;;;;;75.82;39.42;;;;;;;-144.47;92.07;53346.72;5027585;28;20017;-69
2022/08/19 00:58:24;;;;;;;86.63;40.88;;;;;;;-144.47;93.20;53340.75;5070716;28;20024;-69
2022/08/19 01:00:49;;;;;;;82.40;41.13;;;;;;;-144.47;92.92;53322.88;5053939;28;20025;-70
2022/08/19 01:03:18;;;;;;;89.90;41.60;;;;;;;-144.47;93.72;53310.94;5033161;28;20505;-69
2022/08/19 01:05:45;;;;;;;83.20;42.88;;;;;;;-144.47;94.46;53334.78;5053565;28;20119;-71
2022/08/19 01:08:12;;;;;;;89.15;42.33;;;;;;;-144.47;94.18;53308.97;5035987;28;20054;-70
2022/08/19 01:10:41;;;;;;;85.93;42.33;;;;;;;-144.47;94.58;53334.78;5072027;28;20020;-70
2022/08/19 01:13:07;;;;;;;92.20;44.97;;;;;;;-144.47;95.29;53360.63;5033432;28;20096;-68
2022/08/19 01:15:38;;;;;;;95.68;46.72;;;;;;;-144.47;96.02;53295.06;5050057;28;20111;-69
2022/08/19 01:18:09;;;;;;;97.90;48.03;;;;;;;-144.47;96.51;53336.78;5021073;28;20138;-69
2022/08/19 01:20:35;;;;;;;92.13;46.08;;;;;;;-144.47;97.19;53297.03;5037026;28;20024;-69
2022/08/19 01:23:01;;;;;;;108.85;50.35;;;;;;;-144.47;97.83;53301.03;5037226;28;20029;-71
2022/08/19 01:25:49;;;;;;;106.00;49.58;;;;;;;-144.47;98.45;53297.03;5036842;28;20179;-70
2022/08/19 01:28:27;;;;;;;108.25;48.50;;;;;;;-144.47;98.69;53366.56;5070674;28;20021;-71
2022/08/19 01:30:54;;;;;;;112.33;48.00;;;;;;;-144.47;99.33;53320.88;5064479;28;20071;-68
2022/08/19 01:33:20;;;;;;;118.45;51.90;;;;;;;-144.47;99.69;53326.84;5058349;28;20039;-69
2022/08/19 01:35:50;;;;;;;111.80;49.45;;;;;;;-144.47;99.67;53328.81;5052075;28;20128;-71
2022/08/19 01:38:25;;;;;;;120.30;48.33;;;;;;;-144.47;99.81;53358.63;5052496;28;20083;-72
2022/08/19 01:40:51;;;;;;;110.30;49.28;;;;;;;-144.47;99.88;53332.81;5052491;28;20032;-70
2022/08/19 01:43:18;;;;;;;122.25;51.17;;;;;;;-144.47;99.88;53334.78;5069850;28;20028;-70
2022/08/19 01:45:45;;;;;;;112.53;48.45;;;;;;;-144.47;99.78;53324.84;5052663;28;20455;-68
2022/08/19 01:48:11;;;;;;;107.55;48.25;;;;;;;-144.47;99.83;53346.72;5069702;28;20048;-67
2022/08/19 01:50:36;;;;;;;114.95;52.17;;;;;;;-144.47;99.58;53332.81;5069783;28;20386;-69
2022/08/19 01:53:05;;;;;;;117.40;50.47;;;;;;;-144.47;99.67;53378.50;5051670;28;20371;-71
2022/08/19 01:55:31;;;;;;;114.05;51.65;;;;;;;-144.47;99.88;53340.75;5069788;28;20031;-67
2022/08/19 01:58:01;;;;;;;119.95;50.72;;;;;;;-144.47;100.00;53310.94;5051649;28;20028;-70
2022/08/19 02:00:31;;;;;;;110.00;52.00;;;;;;;-144.47;99.90;53328.81;5035066;28;20039;-71
2022/08/19 02:02:56;;;;;;;115.25;51.58;;;;;;;-144.47;100.00;53344.72;5069702;28;20024;-69
2022/08/19 02:05:22;;;;;;;113.90;52.13;;;;;;;-144.47;99.93;53312.94;5069757;28;20023;-67
2022/08/19 02:07:48;;;;;;;123.10;52.70;;;;;;;-144.47;99.99;53348.69;5069527;28;20048;-69
2022/08/19 02:10:18;;;;;;;125.90;54.72;;;;;;;-144.47;99.93;53328.81;5035159;28;20097;-69
2022/08/19 02:12:44;;;;;;;120.60;52.22;;;;;;;-144.47;100.00;53330.81;5069368;28;20116;-68
2022/08/19 02:15:10;;;;;;;118.93;52.90;;;;;;;-144.47;99.63;53305.00;5069613;28;20107;-70
2022/08/19 02:17:35;;;;;;;116.53;53.50;;;;;;;-144.47;99.74;53291.09;5068761;28;20466;-67
2022/08/19 02:20:01;;;;;;;128.98;54.17;;;;;;;-144.47;99.90;53348.69;5034710;28;20031;-68
2022/08/19 02:22:26;;;;;;;123.00;51.78;;;;;;;-144.47;99.70;53376.50;5069492;28;20020;-69
2022/08/19 02:24:53;;;;;;;119.60;54.45;;;;;;;-144.47;99.52;53334.78;5069474;28;20114;-69
2022/08/19 02:27:18;;;;;;;114.63;54.60;;;;;;;-144.47;99.56;53305.00;5048179;28;20524;-69
2022/08/19 02:29:47;;;;;;;125.07;55.22;;;;;;;-144.47;99.80;53334.78;5051749;28;20028;-68
2022/08/19 02:32:13;;;;;;;;;;;;;;;-144.47;99.43;53328.81;5051818;28;20099;-69
2022/08/19 02:34:39;;;;;;;120.40;53.88;;;;;;;-144.47;99.45;53338.75;5076568;28;19955;-70
2022/08/19 02:37:04;;;;;;;118.38;52.70;;;;;;;-144.47;99.42;53334.78;5034360;28;20021;-69
2022/08/19 02:39:30;;;;;;;114.55;53.25;;;;;;;-144.47;99.56;53356.63;5069048;28;20055;-70
2022/08/19 02:41:55;;;;;;;135.00;54.75;;;;;;;-144.47;99.57;53354.66;5051435;28;20103;-67
2022/08/19 02:44:21;;;;;;;123.15;55.72;;;;;;;-144.47;99.52;53372.53;5051285;28;20345;-65
2022/08/19 02:46:47;;;;;;;125.97;54.60;;;;;;;-144.47;99.30;53338.75;5068973;28;20371;-70
2022/08/19 02:49:12;;;;;;;115.32;55.22;;;;;;;-144.47;98.88;53328.81;5071823;28;20029;-69
2022/08/19 02:51:40;;;;;;;110.18;53.25;;;;;;;-144.47;99.16;53316.91;5038694;28;20027;-70
2022/08/19 02:54:08;;;;;;;107.88;53.20;;;;;;;-144.47;99.15;53350.69;5073387;28;20020;-68
2022/08/19 02:56:35;;;;;;;106.40;51.30;;;;;;;-144.47;98.98;53324.84;5038744;28;20047;-70
2022/08/19 02:59:02;;;;;;;118.25;52.17;;;;;;;-144.47;99.12;53342.72;5073034;28;20024;-67
2022/08/19 03:01:32;;;;;;;109.53;52.00;;;;;;;-144.47;99.00;53346.72;5072885;28;20020;-68
2022/08/19 03:04:00;;;;;;;109.70;51.58;;;;;;;-144.47;98.64;53334.78;5038880;28;20074;-70
2022/08/19 03:06:26;;;;;;;92.65;47.22;;;;;;;-144.47;98.88;53326.84;5054688;28;20020;-71
2022/08/19 03:08:53;;;;;;;100.45;47.40;;;;;;;-144.48;100.00;62369.91;5054986;28;20028;-67
2022/08/19 03:11:29;;;;;;;106.65;47.53;;;;;;;-144.48;100.00;62369.91;5072620;28;20059;-70
2022/08/19 03:13:55;;;;;;;94.53;46.58;;;;;;;-144.48;100.00;62369.91;5035009;28;20025;-69
2022/08/19 03:16:22;;;;;;;95.28;46.92;;;;;;;-144.48;100.00;62369.91;5054658;28;20024;-71
2022/08/19 03:18:49;;;;;;;94.55;44.22;;;;;;;-144.48;100.00;62369.91;5054875;28;20021;-66
2022/08/19 03:21:20;;;;;;;83.97;44.63;;;;;;;-144.48;100.00;62369.91;5055211;28;20031;-68
2022/08/19 03:23:46;;;;;;;79.90;41.28;;;;;;;-144.48;100.00;62369.91;5072700;28;20040;-66
2022/08/19 03:26:11;;;;;;;80.95;40.47;;;;;;;-144.48;100.00;62369.91;5054866;28;20028;-70
2022/08/19 03:28:37;;;;;;;75.60;40.38;;;;;;;-144.48;100.00;62369.91;5068546;28;20098;-69
2022/08/19 03:31:10;;;;;;;73.90;41.58;;;;;;;-144.48;100.00;62369.91;5072631;28;20024;-69
2022/08/19 03:33:37;;;;;;;74.18;40.40;;;;;;;-144.48;100.00;62369.91;5079940;28;20024;-66
2022/08/19 03:36:22;;;;;;;76.93;40.70;;;;;;;-144.48;100.00;62369.91;5054802;28;20056;-68
2022/08/19 03:38:51;;;;;;;67.95;37.75;;;;;;;-144.48;100.00;62369.91;5047993;28;20596;-65
2022/08/19 03:41:37;;;;;;;65.55;37.08;;;;;;;-144.48;100.00;62369.91;5037990;28;20051;-70
2022/08/19 03:44:04;;;;;;;70.38;39.75;;;;;;;-144.48;100.00;62369.91;5059073;28;20024;-69
2022/08/19 03:46:32;;;;;;;75.45;38.80;;;;;;;-144.48;100.00;62369.91;5072213;28;20124;-71
2022/08/19 03:48:59;;;;;;;73.72;38.60;;;;;;;-144.48;100.00;62369.91;5061492;28;20441;-70
2022/08/19 03:51:37;;;;;;;61.30;36.10;;;;;;;-144.48;100.00;62369.91;5071192;28;20016;-69
2022/08/19 03:54:05;;;;;;;66.53;36.27;;;;;;;-144.48;100.00;62369.91;5072032;28;20603;-68
2022/08/19 03:56:32;;;;;;;61.67;34.60;;;;;;;-144.48;100.00;62369.91;5054162;28;20270;-71
2022/08/19 03:58:59;;;;;;;72.45;34.45;;;;;;;-144.48;100.00;62369.91;5037992;28;20029;-69
2022/08/19 04:01:27;;;;;;;69.10;35.33;;;;;;;-144.48;100.00;62369.91;5056484;28;20101;-67
2022/08/19 04:03:54;;;;;;;60.00;34.22;;;;;;;-144.48;100.00;62369.91;5071633;28;20480;-68
2022/08/19 04:06:26;;;;;;;62.75;34.75;;;;;;;-144.48;100.00;62369.91;5071821;28;20432;-68
2022/08/19 04:08:56;;;;;;;63.90;34.38;;;;;;;-144.48;100.00;62369.91;5071468;28;20024;-69
2022/08/19 04:11:27;;;;;;;60.83;33.88;;;;;;;-144.48;100.00;62369.91;5071995;28;20047;-69
2022/08/19 04:13:54;;;;;;;60.42;34.03;;;;;;;-144.48;100.00;62369.91;5071869;28;20020;-70
2022/08/19 04:16:21;;;;;;;67.43;36.75;;;;;;;-144.48;100.00;62369.91;5071648;28;20070;-71
2022/08/19 04:18:47;;;;;;;81.38;39.47;;;;;;;-144.48;100.00;62369.91;5071355;28;20035;-68
2022/08/19 04:21:20;;;;;;;77.90;43.55;;;;;;;-144.48;100.00;62369.91;5072017;28;20157;-70
2022/08/19 04:23:46;;;;;;;79.03;43.58;;;;;;;-144.48;100.00;62369.91;5071686;28;20020;-71
2022/08/19 04:26:18;;;;;;;89.18;47.03;;;;;;;-144.48;100.00;62369.91;5071470;28;20136;-69
2022/08/19 04:28:44;;;;;;;87.80;45.40;;;;;;;-144.48;100.00;62369.91;5051357;28;20043;-71
2022/08/19 04:31:22;;;;;;;98.45;48.75;;;;;;;-144.48;100.00;62369.91;5062828;28;20017;-72
2022/08/19 04:33:48;;;;;;;101.25;50.90;;;;;;;-144.48;100.00;62369.91;5059904;28;20031;-70
2022/08/19 04:36:26;;;;;;;100.47;48.55;;;;;;;-144.48;100.00;62369.91;5071238;28;20016;-66
2022/08/19 04:38:55;;;;;;;100.57;51.30;;;;;;;-144.48;100.00;62369.91;5053281;28;20518;-68
2022/08/19 04:44:06;;;;;;;97.53;48.67;;;;;;;-144.48;100.00;62369.91;5058428;28;20078;-69
2022/08/19 04:46:32;;;;;;;102.57;49.80;;;;;;;-144.48;100.00;62369.91;5071094;28;20088;-70
2022/08/19 04:48:59;;;;;;;101.95;47.95;;;;;;;-144.48;100.00;62369.91;5070817;28;20153;-67
2022/08/19 04:51:25;;;;;;;99.68;49.47;;;;;;;-144.48;100.00;62369.91;5059752;28;20017;-70
2022/08/19 04:53:52;;;;;;;93.80;49.17;;;;;;;-144.48;100.00;62369.91;5070844;28;20484;-69
2022/08/19 04:56:20;;;;;;;96.75;49.10;;;;;;;-144.48;100.00;62369.91;5070131;28;20032;-68
2022/08/19 04:58:46;;;;;;;99.72;48.42;;;;;;;-144.48;100.00;62369.91;5070461;28;20020;-69
2022/08/19 05:01:14;;;;;;;93.15;47.47;;;;;;;-144.48;100.00;62369.91;5069385;28;20028;-68
2022/08/19 05:03:39;;;;;;;88.97;47.10;;;;;;;-144.48;100.00;62369.91;5070660;28;20028;-69
2022/08/19 05:06:08;;;;;;;94.22;49.35;;;;;;;-144.48;100.00;62369.91;5070644;28;20028;-69
2022/08/19 05:08:35;;;;;;;98.50;49.50;;;;;;;-144.48;100.00;62369.91;5048239;28;20036;-68
2022/08/19 05:11:06;;;;;;;98.78;50.47;;;;;;;-144.48;100.00;62369.91;5070386;28;20094;-71
2022/08/19 05:13:32;;;;;;;98.05;52.33;;;;;;;-144.48;100.00;62369.91;5070444;28;20016;-71
2022/08/19 05:15:58;;;;;;;101.90;51.55;;;;;;;-144.48;100.00;62369.91;5070239;28;20017;-68
2022/08/19 05:24:01;;;;;;;122.38;57.28;;;;;;;-144.48;100.00;62369.91;5070147;28;20050;-69
2022/08/19 05:26:28;;;;;;;122.47;58.78;;;;;;;-144.48;100.00;62369.91;5070237;28;20043;-70
2022/08/19 05:28:54;;;;;;;124.55;56.83;;;;;;;-144.48;100.00;62369.91;5058143;28;20032;-67
2022/08/19 05:31:20;;;;;;;114.15;54.25;;;;;;;-144.48;100.00;62369.91;5070711;28;20020;-70
2022/08/19 05:33:46;;;;;;;118.88;55.08;;;;;;;-144.48;100.00;62369.91;5072314;28;20062;-68
2022/08/19 05:36:11;;;;;;;116.13;55.03;;;;;;;-144.48;100.00;62369.91;5069961;28;20056;-67
2022/08/19 05:38:36;;;;;;;117.93;55.90;;;;;;;-144.48;100.00;62369.91;5041532;28;20028;-68
2022/08/19 05:41:13;;;;;;;106.72;53.17;;;;;;;-144.48;100.00;62369.91;5062524;28;20400;-69
2022/08/19 05:43:38;;;;;;;118.53;56.13;;;;;;;-144.48;100.00;62369.91;5063232;28;20027;-69
2022/08/19 05:46:05;;;;;;;114.63;55.38;;;;;;;-144.48;100.00;62369.91;5064189;28;20072;-70
2022/08/19 05:48:35;;;;;;;133.85;55.22;;;;;;;-144.48;100.00;62369.91;5061908;28;20087;-68
2022/08/19 05:51:08;;;;;;;118.07;54.63;;;;;;;-144.48;100.00;62369.91;5044184;28;20587;-70
2022/08/19 05:53:34;;;;;;;115.10;54.40;;;;;;;-144.48;100.00;62369.91;5064295;28;20109;-67
2022/08/19 05:56:08;;;;;;;123.03;57.63;;;;;;;-144.48;100.00;62369.91;5063366;28;20363;-70
2022/08/19 05:58:35;;;;;;;120.22;57.45;;;;;;;-144.48;100.00;62369.91;5044166;28;20501;-69
2022/08/19 06:01:05;;;;;;;111.78;55.63;;;;;;;-144.48;100.00;62369.91;5060211;28;20093;-67
2022/08/19 06:03:35;;;;;;;119.13;57.25;;;;;;;-144.48;100.00;62369.91;5061105;28;20024;-71
2022/08/19 06:06:02;;;;;;;118.20;56.90;;;;;;;-144.48;100.00;62369.91;5033824;28;20472;-70
2022/08/19 06:08:27;;;;;;;114.22;56.47;;;;;;;-144.48;100.00;62369.91;5062864;28;20473;-69
2022/08/19 06:10:53;;;;;;;124.03;55.83;;;;;;;-144.48;100.00;62369.91;5063892;28;20020;-68
2022/08/19 06:13:19;;;;;;;124.18;59.83;;;;;;;-144.48;100.00;62369.91;5063492;28;20043;-68
2022/08/19 06:15:46;;;;;;;111.40;55.42;;;;;;;-144.48;100.00;62369.91;5063538;28;20331;-69
2022/08/19 06:18:13;;;;;;;117.45;57.95;;;;;;;-144.48;100.00;62369.91;5062745;28;20086;-69
2022/08/19 06:20:38;;;;;;;118.05;57.80;;;;;;;-144.48;100.00;62369.91;5041330;28;20128;-70
2022/08/19 06:23:04;;;;;;;109.85;56.35;;;;;;;-144.48;100.00;62369.91;5061849;28;20099;-69
2022/08/19 06:25:30;;;;;;;115.72;56.60;;;;;;;-144.48;100.00;62369.91;5063076;28;20029;-67
2022/08/19 06:27:55;;;;;;;119.78;55.38;;;;;;;-144.48;100.00;62369.91;5061485;28;20016;-68
2022/08/19 06:30:20;;;;;;;123.18;57.80;;;;;;;-144.48;100.00;62369.91;5061957;28;20020;-67
2022/08/19 06:32:46;;;;;;;121.43;56.50;;;;;;;-144.48;100.00;62369.91;5069106;28;20024;-68
2022/08/19 06:35:13;;;;;;;114.80;56.45;;;;;;;-144.48;100.00;62369.91;5073921;28;20393;-69
2022/08/19 06:37:38;;;;;;;124.10;58.83;;;;;;;-144.48;100.00;62369.91;5088382;22;20024;-67
2022/08/19 06:40:04;;;;;;;122.80;56.88;;;;;;;-144.48;100.00;62369.91;5047525;28;20037;-67
2022/08/19 06:42:30;;;;;;;124.10;55.50;;;;;;;-144.48;100.00;62369.91;5048696;28;20055;-68
2022/08/19 06:44:55;;;;;;;128.32;59.47;;;;;;;-144.48;100.00;62369.91;5043512;28;20108;-68
2022/08/19 06:47:22;;;;;;;119.55;57.80;;;;;;;-144.48;100.00;62369.91;5021054;28;20482;-68
2022/08/19 06:49:47;;;;;;;124.22;57.65;;;;;;;-144.48;100.00;62369.91;5021686;28;20029;-69
2022/08/19 06:52:14;;;;;;;137.10;58.33;;;;;;;-144.48;100.00;62369.91;5021334;28;20040;-69
2022/08/19 06:54:41;;;;;;;134.00;55.45;;;;;;;-144.48;100.00;62369.91;5041599;28;20407;-69
2022/08/19 06:57:08;;;;;;;110.88;55.53;;;;;;;-144.48;100.00;62369.91;5027764;28;20013;-65
2022/08/19 06:59:34;;;;;;;117.90;56.22;;;;;;;-144.48;100.00;62369.91;5040537;28;20334;-67
2022/08/19 07:02:05;;;;;;;121.93;51.85;;;;;;;-144.48;100.00;62369.91;5036275;28;20032;-67
2022/08/19 07:04:32;;;;;;;120.05;54.30;;;;;;;-144.48;100.00;62369.91;5041499;28;20026;-68
2022/08/19 07:07:00;;;;;;;122.00;54.97;;;;;;;-144.48;100.00;62369.91;5045051;28;20024;-68
2022/08/19 07:09:26;;;;;;;130.25;53.25;;;;;;;-144.48;100.00;62369.91;5032940;28;20017;-67
2022/08/19 07:11:53;;;;;;;109.35;52.33;;;;;;;-144.48;100.00;62369.91;5047782;28;20021;-69
2022/08/19 07:14:24;;;;;;;108.97;50.15;;;;;;;-144.48;100.00;62369.91;5046223;28;20032;-67
2022/08/19 07:16:51;;;;;;;112.05;53.05;;;;;;;-144.48;100.00;62369.91;5037520;28;20032;-67
2022/08/19 07:19:19;;;;;;;116.47;53.83;;;;;;;-144.48;100.00;62369.91;5045225;28;20044;-66
2022/08/19 07:21:45;;;;;;;113.10;51.78;;;;;;;-144.48;100.00;62369.91;5038258;28;20101;-67
2022/08/19 07:24:12;;;;;;;108.97;52.70;;;;;;;-144.48;100.00;62369.91;5049232;28;20036;-68
2022/08/19 07:26:42;;;;;;;109.82;51.88;;;;;;;-144.48;100.00;62369.91;5045327;28;20092;-68
2022/08/19 07:29:07;;;;;;;110.10;50.53;;;;;;;-144.48;100.00;62369.91;5052186;28;20081;-65
2022/08/19 07:31:36;;;;;;;99.72;48.78;;;;;;;-144.48;100.00;62369.91;5053996;28;20024;-67
2022/08/19 07:34:08;;;;;;;114.30;51.22;;;;;;;-144.48;100.00;62369.91;5050033;28;20094;-68
2022/08/19 07:36:36;;;;;;;100.85;48.17;;;;;;;-144.48;100.00;62369.91;5036317;28;20032;-66
2022/08/19 07:39:05;;;;;;;;;;;;;;;-144.48;100.00;62369.91;5056831;28;20040;-65
2022/08/19 07:41:31;;;;;;;98.82;46.10;;;;;;;-144.48;100.00;62369.91;5052577;28;20366;-68
2022/08/19 07:43:58;;;;;;;105.07;46.65;;;;;;;-144.48;100.00;62369.91;5058117;28;20043;-71
2022/08/19 07:46:23;;;;;;;96.25;45.42;;;;;;;-144.48;100.00;62369.91;5058593;28;20017;-67
2022/08/19 07:48:50;;;;;;;96.03;43.15;;;;;;;-144.48;100.00;62369.91;5053626;28;20420;-65
2022/08/19 07:51:20;;;;;;;97.00;45.13;;;;;;;-144.48;100.00;62369.91;5052858;28;20016;-69
2022/08/19 07:53:47;;;;;;;104.28;46.10;;;;;;;-144.48;100.00;62369.91;5056085;28;20105;-68
2022/08/19 07:56:14;;;;;;;92.47;46.10;;;;;;;-144.48;100.00;62369.91;5050362;28;20663;-69
2022/08/19 07:58:42;;;;;;;91.78;43.90;;;;;;;-144.48;100.00;62369.91;5044142;28;20037;-66
2022/08/19 08:01:10;;;;;;;95.15;43.97;;;;;;;-144.48;100.00;62369.91;5063323;28;20025;-66
2022/08/19 08:09:15;;;;;;;92.88;43.58;;;;;;;-144.48;100.00;62369.91;5050084;28;20108;-68
2022/08/19 08:11:54;;;;;;;81.40;42.00;;;;;;;-144.48;100.00;62369.91;5059326;28;20016;-67
2022/08/19 08:14:30;;;;;;;101.07;43.50;;;;;;;-144.48;100.00;62369.91;5050744;28;20021;-66
2022/08/19 08:16:55;;;;;;;89.47;41.92;;;;;;;-144.48;100.00;62369.91;5030337;28;20471;-67
2022/08/19 08:19:23;;;;;;;94.75;43.90;;;;;;;-144.48;100.00;62369.91;5029270;28;20032;-67
2022/08/19 08:21:49;;;;;;;89.70;41.33;;;;;;;-144.48;100.00;62369.91;5030503;28;20749;-64
2022/08/19 08:24:15;;;;;;;92.30;43.10;;;;;;;-144.48;100.00;62369.91;5044081;28;20060;-66
2022/08/19 08:26:42;;;;;;;86.07;40.95;;;;;;;-144.48;100.00;62369.91;5034904;28;20552;-67
2022/08/19 08:29:10;;;;;;;86.32;42.35;;;;;;;-144.48;100.00;62369.91;5035637;28;20100;-67
2022/08/19 08:31:35;;;;;;;95.73;43.60;;;;;;;-144.48;100.00;62369.91;5038699;28;20075;-66
2022/08/19 08:34:01;;;;;;;86.28;41.70;;;;;;;-144.48;100.00;62369.91;5060639;28;20253;-67
2022/08/19 08:36:27;;;;;;;89.15;42.25;;;;;;;-144.48;100.00;62369.91;5058624;28;20610;-66
2022/08/19 08:38:52;;;;;;;85.15;41.28;;;;;;;-144.48;100.00;62369.91;5050375;28;20490;-67
2022/08/19 08:41:41;;;;;;;96.88;42.72;;;;;;;-144.48;100.00;62369.91;5062413;28;20067;-69
2022/08/19 08:44:16;;;;;;;81.05;42.35;;;;;;;-144.48;100.00;62369.91;5038178;28;20051;-67
2022/08/19 08:46:49;;;;;;;87.18;43.72;;;;;;;-144.48;100.00;62369.91;5049946;28;20013;-67
2022/08/19 08:49:30;;;;;;;90.22;44.35;;;;;;;-144.48;100.00;62369.91;5050040;28;20569;-64
2022/08/19 08:52:02;;;;;;;87.43;43.70;;;;;;;-144.48;100.00;62369.91;5056029;28;20039;-69
2022/08/19 08:54:33;;;;;;;89.30;43.60;;;;;;;-144.48;100.00;62369.91;5057921;28;20055;-65
2022/08/19 08:56:59;;;;;;;80.68;41.58;;;;;;;-144.48;100.00;62369.91;5037473;28;20084;-66
2022/08/19 08:59:32;;;;;;;78.28;41.45;;;;;;;-144.48;100.00;62369.91;5051016;28;20024;-68
2022/08/19 09:01:58;;;;;;;83.43;42.90;;;;;;;-144.48;100.00;62369.91;5062658;28;20024;-67
2022/08/19 09:04:23;;;;;;;83.90;40.67;;;;;;;-144.48;100.00;62369.91;5036261;28;20033;-70
2022/08/19 09:07:16;;;;;;;85.85;43.47;;;;;;;-144.48;100.00;62369.91;5041862;28;20104;-65
2022/08/19 09:09:46;;;;;;;91.13;42.95;;;;;;;-144.48;100.00;62369.91;5043724;28;20017;-67
2022/08/19 09:12:43;;;;;;;88.03;40.55;;;;;;;-144.48;100.00;62369.91;5042237;28;20075;-67
2022/08/19 09:15:11;;;;;;;82.68;40.67;;;;;;;-144.48;100.00;62369.91;5012744;28;20096;-68
2022/08/19 09:17:38;;;;;;;79.20;39.50;;;;;;;-144.48;100.00;62369.91;5063385;28;20033;-66
2022/08/19 09:20:10;;;;;;;85.55;41.80;;;;;;;-144.48;100.00;62369.91;5049604;28;20025;-65
2022/08/19 09:22:40;;;;;;;88.47;41.67;;;;;;;-144.48;100.00;62369.91;5050158;28;20107;-67
2022/08/19 09:25:08;;;;;;;79.43;39.88;;;;;;;-144.48;100.00;62369.91;5032076;28;20426;-68
2022/08/19 09:27:36;;;;;;;80.20;38.55;;;;;;;-144.48;100.00;62369.91;5045456;28;20036;-66
2022/08/19 09:30:03;;;;;;;74.43;38.53;;;;;;;-144.48;100.00;62369.91;5031986;28;20574;-69
2022/08/19 09:32:28;;;;;;;80.10;39.13;;;;;;;-144.48;100.00;62369.91;5043115;28;20021;-66
2022/08/19 09:34:57;;;;;;;85.63;40.88;;;;;;;-144.48;100.00;62369.91;5045493;28;20112;-67
2022/08/19 09:37:24;;;;;;;78.53;37.53;;;;;;;-144.48;100.00;62369.91;5055599;28;20032;-66
2022/08/19 09:39:50;;;;;;;76.70;36.33;;;;;;;-144.48;100.00;62369.91;5056238;28;20021;-66
2022/08/19 09:42:15;;;;;;;70.35;37.63;;;;;;;-144.48;100.00;62369.91;5050334;28;20446;-67
2022/08/19 09:44:42;;;;;;;83.90;35.42;;;;;;;-144.48;100.00;62369.91;5063074;28;20528;-67
2022/08/19 09:47:09;;;;;;;79.10;35.17;;;;;;;-144.48;100.00;62369.91;5055932;28;20043;-67
2022/08/19 09:49:35;;;;;;;73.57;33.75;;;;;;;-144.48;100.00;62369.91;5057104;28;20028;-66
2022/08/19 09:52:00;;;;;;;74.93;34.97;;;;;;;-144.48;100.00;62369.91;5051617;28;20017;-66
2022/08/19 09:54:27;;;;;;;81.93;34.17;;;;;;;-144.48;100.00;62369.91;5049315;28;20025;-67
2022/08/19 09:56:53;;;;;;;72.07;34.78;;;;;;;-144.48;100.00;62369.91;5031166;28;20343;-65
2022/08/19 09:59:19;;;;;;;71.22;33.80;;;;;;;-144.48;100.00;62369.91;5048624;28;20135;-66
2022/08/19 10:01:44;;;;;;;75.57;34.20;;;;;;;-144.48;100.00;62369.91;5049205;28;20519;-67
2022/08/19 10:04:10;;;;;;;69.68;34.60;;;;;;;-144.48;100.00;62369.91;5061796;28;20514;-66
2022/08/19 10:06:38;;;;;;;59.53;32.88;;;;;;;-144.48;100.00;62369.91;5026746;28;20033;-66
2022/08/19 10:09:06;;;;;;;62.65;31.50;;;;;;;-144.48;100.00;62369.91;5029789;28;20057;-67
2022/08/19 10:11:32;;;;;;;71.15;33.88;;;;;;;-144.48;100.00;62369.91;5014668;28;20386;-65
2022/08/19 10:13:57;;;;;;;73.05;31.50;;;;;;;-144.48;100.00;62369.91;5042000;28;20020;-67
2022/08/19 10:16:24;;;;;;;66.45;31.65;;;;;;;-144.48;100.00;62369.91;5034753;28;20393;-66
2022/08/19 10:18:50;;;;;;;58.58;27.92;;;;;;;-144.48;100.00;62369.91;5048493;28;20554;-67
2022/08/19 10:21:19;;;;;;;57.63;28.08;;;;;;;-144.48;100.00;62369.91;5024865;28;20029;-67
2022/08/19 10:23:47;;;;;;;47.95;24.80;;;;;;;-144.48;100.00;62369.91;5041919;28;20025;-64
2022/08/19 10:26:21;;;;;;;45.75;23.75;;;;;;;-144.48;100.00;62369.91;5044376;28;20032;-65
2022/08/19 10:28:46;;;;;;;44.67;23.38;;;;;;;-144.48;100.00;62369.91;5033617;28;20424;-67
2022/08/19 10:31:17;;;;;;;47.88;24.75;;;;;;;-144.48;100.00;62369.91;5041259;28;20073;-67
2022/08/19 10:33:43;;;;;;;46.53;24.50;;;;;;;-144.48;100.00;62369.91;5061093;28;20021;-66
2022/08/19 10:36:14;;;;;;;41.53;23.10;;;;;;;-144.48;100.00;62369.91;5060084;28;20083;-65
2022/08/19 10:38:41;;;;;;;43.63;23.00;;;;;;;-144.48;100.00;62369.91;5035369;28;20029;-67
2022/08/19 10:41:15;;;;;;;41.47;23.00;;;;;;;-144.48;100.00;62369.91;5038758;28;20030;-67
2022/08/19 10:43:41;;;;;;;51.92;25.88;;;;;;;-144.48;100.00;62369.91;5042860;28;20026;-68
2022/08/19 10:46:09;;;;;;;48.00;24.13;;;;;;;-144.48;100.00;62369.91;5039937;28;20083;-66
2022/08/19 10:48:35;;;;;;;49.72;24.92;;;;;;;-144.48;100.00;62369.91;5035173;28;20096;-64
2022/08/19 10:53:44;;;;;;;46.65;23.67;;;;;;;-144.48;100.00;62369.91;5029980;28;20032;-66
2022/08/19 10:57:10;;;;;;;36.83;21.42;;;;;;;-144.48;100.00;62369.91;5042973;28;20033;-67
2022/08/19 10:59:04;;;;;;;47.10;21.17;;;;;;;-144.48;100.00;62369.91;5030685;28;20102;-66
2022/08/19 11:01:32;;;;;;;45.33;22.90;;;;;;;-144.48;100.00;62369.91;5035303;28;20025;-65
2022/08/19 11:04:00;;;;;;;51.50;20.42;;;;;;;-144.48;100.00;62369.91;5031184;28;20025;-70
2022/08/19 11:06:26;;;;;;;42.57;19.17;;;;;;;-144.48;100.00;62369.91;5062514;28;20075;-67
2022/08/19 11:08:53;;;;;;;46.20;19.95;;;;;;;-144.48;100.00;62369.91;5048223;28;20645;-66
2022/08/19 11:11:18;;;;;;;47.00;21.35;;;;;;;-144.48;100.00;62369.91;5047923;28;20470;-67
2022/08/19 11:13:45;;;;;;;49.15;21.73;;;;;;;-144.48;100.00;62369.91;5043620;28;20115;-64
2022/08/19 11:16:18;;;;;;;41.00;19.42;;;;;;;-144.48;100.00;62369.91;5052714;28;20025;-66